Airport View

Enter AWOS ICAO identifier for current METAR.

ex. KFNL

PASD 210056Z 32015KT 10SM -RA FEW032 SCT037 BKN045 12/04 A2962 RMK AO2 RAB54 SLP032 P0000 T01170044 $

21 Sep 2019 01:09

Frequency: 134.85

Other Area AWOS: PAOU - PAVC - PACD - PAJC

TAF PASD 202321Z 2100/2124 32016KT P6SM BKN040 FM210900 30008KT P6SM FEW040 AMD LTD TO CLD VIS AND WIND